Time;durP1;ratioP1;P1;durP2;ratioP2;P2;SDS_P1;SDS_P2;PMS_P1;PMS_P2;Temp;Humidity;BMP_temperature;BMP_pressure;BME280_temperature;BME280_humidity;BME280_pressure;Samples;Min_cycle;Max_cycle;Signal;HPM_P1;HPM_P2
2023/07/11 00:00:23;;;;;;;19.65;10.52;;;;;;;30.26;47.15;101329.56;4967396;28;20054;-82
2023/07/11 00:02:52;;;;;;;21.55;9.73;;;;;;;30.28;45.86;101328.25;4935857;28;20117;-82
2023/07/11 00:05:19;;;;;;;24.08;8.98;;;;;;;30.21;45.91;101313.88;4944869;28;20615;-81
2023/07/11 00:07:46;;;;;;;23.33;9.07;;;;;;;29.89;45.50;101270.66;4952572;28;20038;-82
2023/07/11 00:10:17;;;;;;;23.80;8.63;;;;;;;30.31;44.44;101330.47;4963619;28;20054;-80
2023/07/11 00:12:44;;;;;;;19.65;8.88;;;;;;;30.08;44.37;101286.84;4959329;28;20441;-81
2023/07/11 00:15:16;;;;;;;16.15;7.82;;;;;;;30.27;44.14;101323.00;4950927;28;20054;-81
2023/07/11 00:17:49;;;;;;;32.63;8.60;;;;;;;30.24;43.58;101340.75;4966673;28;20054;-80
2023/07/11 00:20:17;;;;;;;18.73;8.35;;;;;;;30.17;43.74;101312.69;4946595;28;20059;-81
2023/07/11 00:22:45;;;;;;;20.63;7.15;;;;;;;30.16;43.11;101317.34;4948265;28;20057;-81
2023/07/11 00:25:19;;;;;;;20.33;9.20;;;;;;;30.18;42.74;101330.81;4952802;28;20049;-81
2023/07/11 00:27:47;;;;;;;21.02;7.93;;;;;;;30.14;42.38;101308.56;4955837;28;20423;-79
2023/07/11 00:30:13;;;;;;;27.42;7.88;;;;;;;30.10;42.29;101290.97;4964578;28;20082;-79
2023/07/11 00:32:40;;;;;;;25.48;7.85;;;;;;;29.92;41.82;101263.84;4976118;28;20346;-80
2023/07/11 00:35:07;;;;;;;35.75;8.20;;;;;;;30.17;42.42;101302.59;4963877;28;20054;-81
2023/07/11 00:37:34;;;;;;;18.05;7.45;;;;;;;30.32;42.14;101328.56;4949254;28;20062;-80
2023/07/11 00:40:02;;;;;;;18.77;7.30;;;;;;;30.23;42.04;101317.19;4947757;28;20527;-80
2023/07/11 00:42:29;;;;;;;23.77;8.20;;;;;;;30.25;41.91;101312.31;4949753;28;20046;-80
2023/07/11 00:45:05;;;;;;;23.80;8.65;;;;;;;30.07;41.31;101276.94;4963112;28;20051;-80
2023/07/11 00:47:32;;;;;;;20.55;8.13;;;;;;;30.17;42.56;101301.75;4963997;28;20046;-82
2023/07/11 00:50:08;;;;;;;23.10;7.72;;;;;;;30.30;41.31;101317.88;4945995;28;20050;-80
2023/07/11 00:52:37;;;;;;;14.65;7.50;;;;;;;30.25;42.25;101309.59;4959909;28;20050;-79
2023/07/11 00:55:13;;;;;;;22.17;7.72;;;;;;;30.28;41.67;101321.94;4955916;28;20070;-81
2023/07/11 00:57:42;;;;;;;19.30;8.13;;;;;;;29.97;42.44;101264.75;4949875;28;20566;-81
2023/07/11 01:00:09;;;;;;;18.67;7.75;;;;;;;30.43;41.71;101320.25;4956111;28;20085;-80
2023/07/11 01:02:36;;;;;;;22.85;8.20;;;;;;;30.17;43.35;101280.69;4974594;28;20196;-81
2023/07/11 01:05:05;;;;;;;14.63;7.63;;;;;;;30.20;44.49;101290.31;4974562;28;20480;-80
2023/07/11 01:07:37;;;;;;;25.45;7.93;;;;;;;30.42;41.63;101321.34;4964638;28;20688;-81
2023/07/11 01:10:05;;;;;;;21.05;8.80;;;;;;;29.76;42.51;101208.03;4975379;28;20218;-81
2023/07/11 01:12:32;;;;;;;26.23;7.15;;;;;;;30.10;41.52;101269.09;4962535;28;20086;-80
2023/07/11 01:14:58;;;;;;;24.05;7.03;;;;;;;30.44;43.41;101318.38;4949748;28;20084;-81
2023/07/11 01:17:32;;;;;;;25.95;7.72;;;;;;;30.42;41.91;101329.56;4960795;28;20051;-80
2023/07/11 01:20:03;;;;;;;20.60;7.78;;;;;;;30.42;41.78;101317.78;4942719;28;20054;-81
2023/07/11 01:22:32;;;;;;;26.75;7.88;;;;;;;30.39;42.00;101313.63;4959901;28;20433;-80
2023/07/11 01:25:05;;;;;;;25.67;7.95;;;;;;;30.36;41.43;101321.50;4968894;28;20054;-79
2023/07/11 01:27:32;;;;;;;24.40;9.10;;;;;;;30.36;43.48;101316.03;4932368;28;20042;-80
2023/07/11 01:30:03;;;;;;;18.60;9.25;;;;;;;30.13;43.10;101290.47;4961354;28;20057;-80
2023/07/11 01:32:30;;;;;;;;;;;;;;;30.29;40.90;101315.38;4963506;28;20053;-79
2023/07/11 01:34:59;;;;;;;22.70;8.18;;;;;;;30.23;43.37;101300.75;4943823;28;19922;-81
2023/07/11 01:37:25;;;;;;;14.52;7.05;;;;;;;30.32;43.00;101310.25;4958665;28;20059;-81
2023/07/11 01:39:57;;;;;;;28.02;9.32;;;;;;;30.09;42.52;101277.53;4958398;28;20054;-81
2023/07/11 01:42:25;;;;;;;19.33;7.90;;;;;;;30.14;41.95;101288.56;4926090;28;20473;-80
2023/07/11 01:44:54;;;;;;;22.70;7.65;;;;;;;30.06;43.22;101278.03;4961851;28;20242;-80
2023/07/11 01:47:21;;;;;;;16.75;7.88;;;;;;;30.22;41.61;101308.16;4947438;28;20093;-80
2023/07/11 01:49:48;;;;;;;20.33;7.25;;;;;;;30.20;41.70;101302.09;4960435;28;20052;-80
2023/07/11 01:52:18;;;;;;;29.95;7.57;;;;;;;30.11;41.64;101287.16;4946475;28;20251;-80
2023/07/11 01:54:45;;;;;;;24.30;8.48;;;;;;;29.86;41.88;101257.50;4946476;28;20137;-80
2023/07/11 01:57:12;;;;;;;21.92;7.47;;;;;;;30.12;41.71;101301.66;4957164;28;20133;-80
2023/07/11 01:59:40;;;;;;;22.98;8.25;;;;;;;30.07;41.46;101296.13;4954273;28;20137;-81
2023/07/11 02:02:08;;;;;;;18.55;8.20;;;;;;;30.06;41.78;101289.81;4963239;28;20331;-80
2023/07/11 02:04:37;;;;;;;25.17;8.02;;;;;;;30.02;41.86;101286.72;4955998;28;20136;-79
2023/07/11 02:07:05;;;;;;;19.13;6.80;;;;;;;29.79;42.20;101256.81;4963954;28;20156;-80
2023/07/11 02:09:33;;;;;;;20.88;8.23;;;;;;;29.93;41.86;101285.53;4949334;28;21040;-80
2023/07/11 02:12:01;;;;;;;18.85;7.50;;;;;;;29.79;42.07;101267.75;4949459;28;20081;-80
2023/07/11 02:14:28;;;;;;;24.27;7.65;;;;;;;29.80;41.91;101270.22;4938191;28;20453;-80
2023/07/11 02:16:55;;;;;;;25.98;8.02;;;;;;;29.85;42.38;101282.34;4941411;28;20050;-79
2023/07/11 02:19:23;;;;;;;28.83;7.60;;;;;;;29.72;42.59;101265.19;4938076;28;20108;-80
2023/07/11 02:21:51;;;;;;;17.20;8.00;;;;;;;29.80;41.99;101285.84;4936191;28;20145;-78
2023/07/11 02:24:18;;;;;;;30.73;8.00;;;;;;;29.86;42.46;101284.00;4953710;28;20043;-81
2023/07/11 02:26:50;;;;;;;20.35;8.48;;;;;;;29.65;42.75;101250.81;4947503;28;20054;-81
2023/07/11 02:29:19;;;;;;;19.50;7.72;;;;;;;29.70;43.60;101269.25;4937078;28;20377;-80
2023/07/11 02:31:45;;;;;;;16.95;7.47;;;;;;;29.60;42.71;101248.81;4948326;28;20085;-80
2023/07/11 02:34:17;;;;;;;29.38;7.60;;;;;;;29.80;42.33;101285.84;4932946;28;20279;-82
2023/07/11 02:36:49;;;;;;;19.90;8.45;;;;;;;29.77;42.35;101286.34;4929867;28;20077;-80
2023/07/11 02:39:17;;;;;;;27.77;7.80;;;;;;;29.42;42.32;101235.38;4938048;28;20050;-81
2023/07/11 02:41:44;;;;;;;23.23;8.65;;;;;;;29.72;42.33;101278.88;4918256;28;20557;-82
2023/07/11 02:44:11;;;;;;;16.88;8.57;;;;;;;29.68;42.58;101282.34;4912320;28;20526;-82
2023/07/11 02:46:37;;;;;;;22.35;7.65;;;;;;;29.58;42.35;101266.56;4921128;28;20141;-82
2023/07/11 02:49:10;;;;;;;22.52;8.20;;;;;;;29.65;42.21;101271.88;4923905;28;20490;-82
2023/07/11 02:51:39;;;;;;;21.25;8.27;;;;;;;29.53;42.47;101258.25;4939833;28;20068;-81
2023/07/11 02:54:07;;;;;;;24.80;8.45;;;;;;;29.60;42.86;101281.63;4909783;28;20388;-81
2023/07/11 02:56:34;;;;;;;20.05;8.20;;;;;;;29.65;42.79;101293.75;4914407;28;20712;-80
2023/07/11 02:59:02;;;;;;;23.48;8.35;;;;;;;29.59;42.52;101281.91;4909478;28;20317;-81
2023/07/11 03:01:32;;;;;;;23.50;8.25;;;;;;;29.66;43.04;101284.47;4960129;28;20066;-79
2023/07/11 03:04:00;;;;;;;26.30;7.57;;;;;;;29.66;42.54;101284.47;4978673;28;20045;-81
2023/07/11 03:06:28;;;;;;;26.42;8.35;;;;;;;29.54;42.71;101274.44;4935921;28;20050;-81
2023/07/11 03:08:56;;;;;;;24.25;8.43;;;;;;;29.63;41.81;101274.03;4941736;28;20096;-80
2023/07/11 03:11:24;;;;;;;17.63;7.40;;;;;;;29.67;42.23;101291.63;4938834;28;20077;-80
2023/07/11 03:14:02;;;;;;;17.17;7.07;;;;;;;29.23;41.88;101220.28;4936141;28;20103;-79
2023/07/11 03:16:36;;;;;;;32.20;8.55;;;;;;;29.49;42.07;101273.50;4945884;28;20065;-81
2023/07/11 03:19:03;;;;;;;23.70;8.73;;;;;;;29.29;42.43;101252.09;4935379;28;20319;-80
2023/07/11 03:21:30;;;;;;;27.05;8.27;;;;;;;29.37;42.65;101266.19;4924464;28;20050;-82
2023/07/11 03:24:01;;;;;;;24.40;8.32;;;;;;;29.42;42.66;101275.56;4927055;28;20230;-82
2023/07/11 03:26:30;;;;;;;21.13;7.97;;;;;;;29.52;42.65;101294.91;4938604;28;20448;-79
2023/07/11 03:28:56;;;;;;;21.77;8.00;;;;;;;29.48;42.43;101294.56;4931681;28;20082;-83
2023/07/11 03:31:23;;;;;;;23.67;7.90;;;;;;;29.22;42.28;101245.94;4930443;28;20492;-81
2023/07/11 03:33:50;;;;;;;29.67;8.32;;;;;;;29.53;42.16;101293.81;4963531;28;20065;-80
2023/07/11 03:36:17;;;;;;;18.98;7.35;;;;;;;29.31;42.34;101267.16;4950929;28;20046;-80
2023/07/11 03:38:44;;;;;;;14.63;7.00;;;;;;;29.51;42.29;101296.78;4948993;28;20046;-79
2023/07/11 03:41:13;;;;;;;24.45;7.93;;;;;;;29.25;42.08;101261.84;4957141;28;20077;-80
2023/07/11 03:43:40;;;;;;;18.50;8.27;;;;;;;29.51;41.59;101287.75;4966638;28;20385;-80
2023/07/11 03:46:14;;;;;;;46.85;9.25;;;;;;;29.28;41.93;101266.84;4955288;28;20475;-80
2023/07/11 03:48:41;;;;;;;33.83;9.05;;;;;;;29.34;42.40;101276.78;4949579;28;20600;-81
2023/07/11 03:51:08;;;;;;;23.27;8.70;;;;;;;29.01;43.06;101245.53;4956078;28;20282;-80
2023/07/11 03:53:40;;;;;;;18.27;8.15;;;;;;;29.28;45.01;101281.34;4947418;28;20143;-81
2023/07/11 03:56:13;;;;;;;32.28;9.18;;;;;;;29.50;44.95;101308.81;4963683;28;20076;-80
2023/07/11 03:58:40;;;;;;;19.42;8.90;;;;;;;29.47;45.69;101312.06;4961697;28;20048;-80
2023/07/11 04:01:07;;;;;;;25.83;9.13;;;;;;;29.28;46.26;101289.53;4963729;28;20124;-80
2023/07/11 04:03:34;;;;;;;19.95;8.73;;;;;;;29.66;49.40;101306.34;4979463;28;20144;-81
2023/07/11 04:06:01;;;;;;;13.45;7.43;;;;;;;29.86;49.27;101314.09;4972676;28;20351;-79
2023/07/11 04:08:39;;;;;;;20.10;9.65;;;;;;;29.47;47.54;101281.97;4971454;28;20065;-80
2023/07/11 04:11:09;;;;;;;26.27;10.55;;;;;;;29.32;48.35;101300.81;4966919;28;20054;-81
2023/07/11 04:13:36;;;;;;;26.80;11.73;;;;;;;29.25;48.41;101311.06;4944314;28;20124;-80
2023/07/11 04:16:03;;;;;;;30.95;10.45;;;;;;;29.12;48.53;101312.19;4986348;28;20497;-79
2023/07/11 04:18:31;;;;;;;16.05;10.02;;;;;;;29.22;49.34;101327.97;4960328;28;20077;-80
2023/07/11 04:21:10;;;;;;;32.35;12.15;;;;;;;28.60;49.21;101231.03;4980253;28;20080;-81
2023/07/11 04:23:43;;;;;;;24.58;10.85;;;;;;;28.97;49.08;101299.84;4966582;28;20298;-81
2023/07/11 04:26:18;;;;;;;23.55;10.73;;;;;;;28.96;49.47;101297.38;5003171;28;20128;-80
2023/07/11 04:28:45;;;;;;;22.38;11.30;;;;;;;28.92;49.63;101313.41;4978949;28;20140;-80
2023/07/11 04:31:13;;;;;;;29.42;10.02;;;;;;;28.90;49.92;101321.00;4979704;28;20042;-80
2023/07/11 04:33:39;;;;;;;23.63;10.85;;;;;;;28.90;50.46;101325.66;4949714;28;20254;-80
2023/07/11 04:36:14;;;;;;;26.48;11.27;;;;;;;28.84;50.51;101313.78;4939341;28;20223;-80
2023/07/11 04:38:46;;;;;;;26.40;11.52;;;;;;;28.54;50.51;101283.88;4959756;28;20060;-82
2023/07/11 04:41:17;;;;;;;21.50;9.70;;;;;;;28.75;50.91;101313.31;4954782;28;20046;-81
2023/07/11 04:43:44;;;;;;;17.77;10.38;;;;;;;28.72;51.14;101310.25;4959431;28;20041;-81
2023/07/11 04:46:11;;;;;;;21.80;10.13;;;;;;;28.33;51.21;101258.84;4982010;28;20526;-81
2023/07/11 04:48:38;;;;;;;26.40;10.85;;;;;;;28.56;51.27;101300.88;4990026;28;20060;-80
2023/07/11 04:51:07;;;;;;;27.15;10.88;;;;;;;28.25;51.99;101258.38;4976223;28;20042;-81
2023/07/11 04:53:40;;;;;;;19.10;10.02;;;;;;;28.52;52.50;101299.69;4991332;28;20103;-81
2023/07/11 04:56:12;;;;;;;27.77;10.43;;;;;;;28.69;51.97;101325.22;4979914;28;20045;-80
2023/07/11 04:58:44;;;;;;;23.13;10.80;;;;;;;28.53;51.85;101287.69;4976884;28;20485;-82
2023/07/11 05:01:17;;;;;;;27.42;10.77;;;;;;;28.63;51.52;101317.97;4986066;28;20431;-80
2023/07/11 05:03:49;;;;;;;38.60;20.73;;;;;;;28.66;51.35;101325.66;4946346;28;20046;-81
2023/07/11 05:06:18;;;;;;;32.17;11.07;;;;;;;28.60;51.17;101310.25;4952834;28;20046;-79
2023/07/11 05:08:45;;;;;;;30.15;11.77;;;;;;;28.61;51.03;101300.97;4955790;28;20223;-82
2023/07/11 05:11:17;;;;;;;24.42;10.45;;;;;;;28.87;51.52;101332.41;4956428;28;20077;-80
2023/07/11 05:13:47;;;;;;;29.40;10.63;;;;;;;28.93;51.94;101344.28;4964201;28;20078;-79
2023/07/11 05:16:17;;;;;;;29.08;10.48;;;;;;;28.95;51.97;101334.78;4974547;28;20076;-81
2023/07/11 05:18:48;;;;;;;21.00;9.33;;;;;;;29.08;51.71;101338.34;4960234;28;20050;-80
2023/07/11 05:21:17;;;;;;;22.30;9.43;;;;;;;28.87;49.04;101309.75;4991456;28;20345;-81
2023/07/11 05:23:44;;;;;;;30.17;9.65;;;;;;;28.94;49.98;101310.44;5001428;28;20401;-79
2023/07/11 05:26:13;;;;;;;24.52;9.77;;;;;;;29.06;49.24;101324.06;4980866;28;20328;-78
2023/07/11 05:28:39;;;;;;;28.35;8.50;;;;;;;29.09;49.09;101313.50;4975564;28;20309;-80
2023/07/11 05:31:07;;;;;;;23.35;8.93;;;;;;;29.32;48.39;101339.94;4979983;28;20050;-78
2023/07/11 05:33:35;;;;;;;29.88;9.93;;;;;;;29.36;47.42;101340.28;4986284;28;20053;-78
2023/07/11 05:36:33;;;;;;;28.35;8.90;;;;;;;29.34;47.40;101321.38;4938854;28;20871;-80
2023/07/11 05:39:12;;;;;;;23.50;9.10;;;;;;;29.46;47.36;101326.78;4962041;28;20054;-80
2023/07/11 05:41:44;;;;;;;34.70;9.65;;;;;;;29.57;47.24;101336.84;4961743;28;20053;-80
2023/07/11 05:44:14;;;;;;;30.13;9.05;;;;;;;29.50;46.85;101311.56;4958128;28;20089;-81
2023/07/11 05:46:42;;;;;;;29.70;8.65;;;;;;;29.72;46.49;101336.31;4962996;28;20578;-80
2023/07/11 05:49:13;;;;;;;26.20;8.50;;;;;;;29.75;46.54;101337.75;4966129;28;20081;-81
2023/07/11 05:51:40;;;;;;;18.20;8.40;;;;;;;29.56;45.96;101294.13;4962647;28;20050;-78
2023/07/11 05:54:07;;;;;;;24.90;8.57;;;;;;;29.82;45.20;101319.25;4953473;28;20416;-79
2023/07/11 05:56:38;;;;;;;22.83;8.02;;;;;;;29.85;45.14;101309.72;4980655;28;20065;-80
2023/07/11 05:59:05;;;;;;;26.23;7.88;;;;;;;30.01;44.39;101331.63;4983347;28;20412;-79
2023/07/11 06:01:32;;;;;;;23.30;8.77;;;;;;;29.92;44.98;101305.72;4968486;28;20226;-80
2023/07/11 06:04:14;;;;;;;20.35;9.30;;;;;;;30.13;44.38;101327.97;4972502;28;20523;-80
2023/07/11 06:06:42;;;;;;;;;;;;;;;29.82;44.60;101289.97;4973539;28;20120;-81
2023/07/11 06:09:12;;;;;;;34.50;9.55;;;;;;;30.04;44.09;101313.88;4957818;28;20004;-81
2023/07/11 06:11:38;;;;;;;24.88;9.38;;;;;;;30.17;43.59;101324.50;4955661;28;20050;-81
2023/07/11 06:14:09;;;;;;;23.45;9.68;;;;;;;29.98;43.60;101282.84;4978677;28;20133;-81
2023/07/11 06:16:37;;;;;;;22.00;8.40;;;;;;;30.31;43.49;101329.66;4992646;28;20399;-80
2023/07/11 06:19:04;;;;;;;27.08;8.43;;;;;;;30.28;43.84;101324.69;5001947;28;20425;-80
2023/07/11 06:21:33;;;;;;;25.77;8.35;;;;;;;30.36;43.01;101327.81;5000050;28;20141;-79
2023/07/11 06:24:03;;;;;;;16.65;8.50;;;;;;;30.18;43.16;101292.47;4985143;28;20469;-79
2023/07/11 06:26:29;;;;;;;30.08;8.55;;;;;;;30.44;42.68;101329.31;4980460;28;20053;-81
2023/07/11 06:28:56;;;;;;;29.45;7.90;;;;;;;30.15;42.54;101271.06;4987110;28;20131;-79
2023/07/11 06:31:23;;;;;;;28.10;9.45;;;;;;;30.45;43.06;101326.31;4991507;28;20473;-80
2023/07/11 06:33:50;;;;;;;19.63;9.82;;;;;;;30.48;42.58;101329.63;4980160;28;20348;-80
2023/07/11 06:36:17;;;;;;;24.17;8.68;;;;;;;30.43;42.48;101317.50;4960092;28;20088;-80
2023/07/11 06:38:44;;;;;;;35.97;9.80;;;;;;;30.36;41.87;101297.69;4965522;28;20049;-82
2023/07/11 06:41:11;;;;;;;31.50;9.13;;;;;;;30.65;41.75;101335.91;4998029;28;20033;-81
2023/07/11 06:43:38;;;;;;;20.17;8.35;;;;;;;30.58;41.47;101327.03;4960124;28;20050;-81
2023/07/11 06:46:04;;;;;;;31.52;8.27;;;;;;;30.59;41.51;101323.22;4963692;28;20042;-81
2023/07/11 06:48:32;;;;;;;25.40;9.25;;;;;;;30.35;42.17;101290.56;4974186;28;20046;-82
2023/07/11 06:51:02;;;;;;;25.67;8.98;;;;;;;30.71;42.16;101334.91;4963782;28;20042;-82
2023/07/11 06:53:42;;;;;;;27.85;9.48;;;;;;;30.67;41.65;101317.28;4988527;28;20413;-81
2023/07/11 06:56:09;;;;;;;23.67;7.70;;;;;;;30.81;41.22;101329.53;4981014;28;20140;-79
2023/07/11 06:58:39;;;;;;;30.95;9.00;;;;;;;30.80;41.80;101322.41;4967815;28;20042;-81
2023/07/11 07:01:07;;;;;;;28.15;9.45;;;;;;;30.84;42.52;101328.25;4962799;28;20061;-81
2023/07/11 07:03:52;;;;;;;25.08;8.88;;;;;;;30.91;42.54;101339.03;4959107;28;20081;-81
2023/07/11 07:06:19;;;;;;;32.63;8.88;;;;;;;30.94;42.71;101342.06;4949989;28;20042;-80
2023/07/11 07:08:46;;;;;;;25.65;8.27;;;;;;;30.85;42.19;101317.03;4948166;28;20050;-79
2023/07/11 07:11:16;;;;;;;30.77;8.70;;;;;;;31.02;41.33;101341.66;4973694;28;20061;-80
2023/07/11 07:13:56;;;;;;;22.48;9.60;;;;;;;30.99;41.24;101322.13;4952966;28;20269;-80
2023/07/11 07:16:33;;;;;;;31.90;8.02;;;;;;;31.09;41.86;101341.44;4972493;28;20080;-80
2023/07/11 07:19:06;;;;;;;31.50;9.02;;;;;;;31.12;40.55;101318.16;4957605;28;20431;-80
2023/07/11 07:21:33;;;;;;;16.05;7.90;;;;;;;30.92;40.58;101300.38;4951929;28;20065;-81
2023/07/11 07:24:03;;;;;;;24.80;8.70;;;;;;;31.06;41.09;101330.97;4964094;28;20297;-81
2023/07/11 07:26:30;;;;;;;33.40;8.70;;;;;;;31.00;42.06;101323.78;4942799;28;20053;-79
2023/07/11 07:28:57;;;;;;;19.05;7.10;;;;;;;30.83;41.66;101288.22;4964644;28;20131;-79
2023/07/11 07:31:25;;;;;;;30.83;9.40;;;;;;;31.03;40.89;101295.84;4963029;28;20057;-79
2023/07/11 07:33:56;;;;;;;21.35;8.65;;;;;;;31.29;41.25;101325.22;4961679;28;20080;-81
2023/07/11 07:36:25;;;;;;;25.67;8.43;;;;;;;31.38;41.22;101330.25;4967803;28;20046;-81
2023/07/11 07:38:55;;;;;;;28.45;10.20;;;;;;;31.29;40.86;101316.19;4944856;28;20048;-81
2023/07/11 07:41:22;;;;;;;26.40;9.93;;;;;;;31.32;40.48;101323.06;4968686;28;20474;-80
2023/07/11 07:43:49;;;;;;;24.88;9.05;;;;;;;31.41;42.09;101332.50;4954431;28;20306;-81
2023/07/11 07:46:17;;;;;;;22.55;10.90;;;;;;;31.43;41.01;101333.88;4962005;28;20402;-81
2023/07/11 07:48:45;;;;;;;39.42;10.88;;;;;;;31.43;41.18;101336.63;4970862;28;20501;-78
2023/07/11 07:51:15;;;;;;;26.02;9.93;;;;;;;30.91;42.36;101240.34;4951463;28;20555;-81
2023/07/11 07:53:42;;;;;;;26.20;10.27;;;;;;;31.35;41.86;101333.50;4988377;28;20042;-80
2023/07/11 07:56:20;;;;;;;21.63;10.95;;;;;;;31.25;41.37;101312.28;4932600;28;20355;-81
2023/07/11 07:58:48;;;;;;;21.42;9.93;;;;;;;31.29;42.97;101308.78;4952810;28;20860;-81
2023/07/11 08:01:16;;;;;;;31.95;11.30;;;;;;;31.55;41.70;101339.22;4975031;28;20481;-81
2023/07/11 08:03:44;;;;;;;34.63;9.70;;;;;;;31.21;42.37;101294.66;4970239;28;20069;-82
2023/07/11 08:06:15;;;;;;;30.83;11.25;;;;;;;31.06;42.45;101270.66;4970003;28;20349;-82
2023/07/11 08:08:45;;;;;;;27.92;10.27;;;;;;;31.19;42.98;101273.00;4952059;28;20049;-79
2023/07/11 08:11:16;;;;;;;29.33;10.25;;;;;;;31.42;43.47;101304.00;4961103;28;20050;-80
2023/07/11 08:13:44;;;;;;;34.33;11.63;;;;;;;31.58;43.00;101325.00;4983966;28;20052;-81
2023/07/11 08:16:16;;;;;;;23.55;9.48;;;;;;;31.54;44.00;101315.63;4981215;28;20095;-81
2023/07/11 08:18:57;;;;;;;;;;;;;;;31.73;43.16;101321.56;4955221;28;20050;-79
2023/07/11 08:21:28;;;;;;;32.97;11.23;;;;;;;31.80;42.07;101318.59;4951913;28;19929;-80
2023/07/11 08:23:55;;;;;;;31.15;11.50;;;;;;;31.72;42.38;101287.78;4967228;28;20104;-82
2023/07/11 08:26:27;;;;;;;33.00;11.43;;;;;;;31.92;42.49;101311.84;4954989;28;20469;-81
2023/07/11 08:28:59;;;;;;;30.58;10.80;;;;;;;31.89;43.16;101292.31;4986205;28;20096;-82
2023/07/11 08:31:36;;;;;;;25.10;11.88;;;;;;;31.88;43.24;101298.91;4962421;28;20053;-82
2023/07/11 08:34:03;;;;;;;21.88;9.63;;;;;;;31.82;44.06;101272.50;4963429;28;20482;-82
2023/07/11 08:36:31;;;;;;;24.20;12.48;;;;;;;31.99;43.38;101305.34;4959400;28;20129;-84
2023/07/11 08:38:59;;;;;;;21.80;10.75;;;;;;;31.38;43.86;101223.25;4933637;28;20450;-81
2023/07/11 08:41:40;;;;;;;27.60;10.15;;;;;;;31.26;43.97;101196.00;4962747;28;20407;-80
2023/07/11 08:44:15;;;;;;;34.33;12.18;;;;;;;31.97;43.30;101307.50;4980454;28;20163;-81
2023/07/11 08:47:01;;;;;;;32.90;11.93;;;;;;;31.90;43.10;101261.06;4964661;28;20054;-82
2023/07/11 08:49:37;;;;;;;29.08;13.63;;;;;;;32.06;43.00;101290.28;4989099;28;20504;-80
2023/07/11 08:52:07;;;;;;;27.05;11.10;;;;;;;32.17;42.86;101284.88;4978109;28;20072;-78
2023/07/11 08:54:44;;;;;;;26.63;13.82;;;;;;;32.29;43.11;101307.50;4980895;28;20046;-81
2023/07/11 08:57:12;;;;;;;28.23;13.90;;;;;;;32.44;42.23;101304.81;4966695;28;20119;-81
2023/07/11 08:59:51;;;;;;;24.35;12.35;;;;;;;32.30;42.83;101300.88;4956803;28;20122;-80
2023/07/11 09:02:33;;;;;;;24.63;12.18;;;;;;;32.31;43.55;101308.88;4954536;28;20418;-81
2023/07/11 09:05:03;;;;;;;26.77;12.80;;;;;;;32.23;43.63;101276.38;4952412;28;20049;-80
2023/07/11 09:07:41;;;;;;;36.60;13.43;;;;;;;31.84;43.97;101226.41;4935408;28;20081;-80
2023/07/11 09:10:29;;;;;;;28.40;11.45;;;;;;;32.49;43.98;101315.03;4955095;28;20042;-81
2023/07/11 09:13:38;;;;;;;30.92;13.55;;;;;;;32.51;42.75;101318.38;4966580;28;20047;-82
2023/07/11 09:16:16;;;;;;;25.83;12.90;;;;;;;32.38;42.91;101280.31;4956323;28;20058;-80
2023/07/11 09:18:59;;;;;;;30.25;12.65;;;;;;;32.66;42.16;101306.63;4958637;28;20125;-81
2023/07/11 09:21:46;;;;;;;27.35;13.77;;;;;;;32.69;42.29;101298.66;4924455;28;20047;-81
2023/07/11 09:24:31;;;;;;;29.40;12.02;;;;;;;32.01;43.09;101179.59;4928609;28;20311;-83
2023/07/11 09:27:18;;;;;;;32.20;12.82;;;;;;;32.65;43.28;101303.06;4934083;28;20058;-82
2023/07/11 09:29:46;;;;;;;31.80;14.25;;;;;;;32.69;42.68;101297.84;4956882;28;20038;-82
2023/07/11 09:32:15;;;;;;;30.20;14.70;;;;;;;32.80;42.54;101294.03;4979505;28;20512;-82
2023/07/11 09:34:45;;;;;;;29.92;13.40;;;;;;;32.70;43.54;101289.34;4958487;28;20054;-80
2023/07/11 09:37:27;;;;;;;39.30;14.93;;;;;;;32.70;43.42;101291.25;4946362;28;20050;-81
2023/07/11 09:40:03;;;;;;;25.90;12.93;;;;;;;32.71;43.47;101303.91;4981164;28;20281;-78
2023/07/11 09:42:39;;;;;;;27.80;13.50;;;;;;;32.98;43.12;101301.78;4984331;28;20691;-80
2023/07/11 09:45:11;;;;;;;32.75;14.50;;;;;;;33.00;42.71;101293.28;4972445;28;20284;-81
2023/07/11 09:47:49;;;;;;;23.52;12.50;;;;;;;33.00;42.66;101258.34;4953455;28;20084;-81
2023/07/11 09:50:28;;;;;;;27.83;14.93;;;;;;;33.13;41.71;101302.97;4955083;28;20621;-81
2023/07/11 09:53:21;;;;;;;26.73;13.43;;;;;;;32.74;42.04;101260.19;4981452;28;20058;-82
2023/07/11 09:55:57;;;;;;;36.35;14.07;;;;;;;33.13;41.93;101300.22;4952168;28;20043;-79
2023/07/11 09:58:38;;;;;;;26.13;13.68;;;;;;;33.06;42.38;101261.16;4927776;28;20271;-80
2023/07/11 10:01:14;;;;;;;36.30;13.98;;;;;;;33.14;42.08;101274.38;4944958;28;20109;-81
2023/07/11 10:03:47;;;;;;;31.50;14.43;;;;;;;33.16;42.23;101274.94;4960665;28;20062;-81
2023/07/11 10:06:26;;;;;;;30.38;15.45;;;;;;;33.53;41.02;101301.41;4967870;28;20789;-82
2023/07/11 10:09:29;;;;;;;23.70;14.85;;;;;;;33.59;41.20;101294.84;4965745;28;20058;-81
2023/07/11 10:11:59;;;;;;;32.40;13.30;;;;;;;33.72;41.00;101288.81;4977256;28;20088;-80
2023/07/11 10:14:29;;;;;;;28.30;12.23;;;;;;;33.35;41.37;101223.81;4975495;28;20050;-80
2023/07/11 10:16:57;;;;;;;31.80;12.85;;;;;;;33.38;42.19;101288.47;4974033;28;20091;-79
2023/07/11 10:19:27;;;;;;;30.40;13.48;;;;;;;33.03;41.31;101242.41;4953431;28;20093;-80
2023/07/11 10:21:58;;;;;;;26.10;13.52;;;;;;;33.10;41.99;101237.50;4926898;28;20057;-80
2023/07/11 10:24:32;;;;;;;32.40;14.27;;;;;;;33.58;41.61;101284.94;4962508;28;20053;-81
2023/07/11 10:27:03;;;;;;;29.73;14.48;;;;;;;33.96;40.00;101296.47;4930303;28;20058;-79
2023/07/11 10:29:49;;;;;;;19.48;12.77;;;;;;;34.08;40.42;101275.03;4963217;28;20054;-80
2023/07/11 10:32:32;;;;;;;;;;;;;;;34.31;40.49;101286.56;4981609;28;20506;-79
2023/07/11 10:35:02;;;;;;;21.55;13.18;;;;;;;33.90;40.85;101278.31;4960615;28;19929;-80
2023/07/11 10:37:53;;;;;;;27.58;13.02;;;;;;;33.92;39.45;101232.06;4936500;28;20141;-80
2023/07/11 10:40:28;;;;;;;27.08;12.75;;;;;;;34.30;40.12;101269.19;4969503;28;20451;-80
2023/07/11 10:43:00;;;;;;;24.65;12.07;;;;;;;34.52;40.02;101279.88;4955488;28;20406;-81
2023/07/11 10:45:31;;;;;;;19.30;12.00;;;;;;;33.84;40.33;101209.50;4944184;28;20046;-80
2023/07/11 10:48:10;;;;;;;29.67;12.18;;;;;;;33.98;40.29;101259.28;4961378;28;20458;-79
2023/07/11 10:50:55;;;;;;;24.70;12.98;;;;;;;33.74;40.71;101266.47;4984544;28;20054;-78
2023/07/11 10:53:34;;;;;;;31.63;14.95;;;;;;;33.68;40.75;101249.16;4963100;28;20265;-81
2023/07/11 10:56:34;;;;;;;31.48;13.48;;;;;;;34.02;40.62;101245.81;4962840;28;20054;-78
2023/07/11 10:59:01;;;;;;;28.52;11.82;;;;;;;34.15;39.59;101220.44;4941453;28;20054;-80
2023/07/11 11:01:46;;;;;;;26.42;11.30;;;;;;;34.28;40.08;101230.06;4959844;28;20054;-78
2023/07/11 11:04:36;;;;;;;23.48;11.32;;;;;;;34.27;40.46;101244.94;4957227;28;20227;-79
2023/07/11 11:07:09;;;;;;;34.97;12.80;;;;;;;33.94;40.47;101194.06;4951510;28;20116;-79
2023/07/11 11:09:46;;;;;;;25.33;13.38;;;;;;;34.65;39.04;101245.38;4967826;28;20348;-80
2023/07/11 11:12:28;;;;;;;34.03;13.07;;;;;;;34.85;38.78;101249.97;4975918;28;20078;-79
2023/07/11 11:15:13;;;;;;;41.58;14.10;;;;;;;35.03;38.72;101240.22;4954023;28;20431;-80
2023/07/11 11:18:18;;;;;;;29.40;12.65;;;;;;;35.16;38.53;101244.31;4964264;28;20089;-80
2023/07/11 11:21:01;;;;;;;27.40;13.45;;;;;;;35.09;37.99;101234.41;4943288;28;20093;-80
2023/07/11 11:24:09;;;;;;;32.88;12.45;;;;;;;34.75;37.04;101201.22;4978638;28;20280;-82
2023/07/11 11:26:51;;;;;;;28.67;12.15;;;;;;;34.95;37.90;101194.75;4958686;28;20046;-80
2023/07/11 11:29:38;;;;;;;28.58;12.50;;;;;;;35.08;37.83;101220.88;4965507;28;20041;-80
2023/07/11 11:32:42;;;;;;;27.58;11.65;;;;;;;35.26;38.21;101181.59;4979477;28;20125;-81
2023/07/11 11:35:21;;;;;;;32.65;14.00;;;;;;;35.53;37.78;101219.72;4969458;28;20327;-79